sensor_id;sensor_type;location;lat;lon;timestamp;pressure;altitude;pressure_sealevel;temperature;humidity
78894;BME280;68282;42.698;23.350;2023-04-15T00:00:30;94678.50;;;10.80;51.39
78894;BME280;68282;42.698;23.350;2023-04-15T00:02:56;94691.56;;;10.83;52.03
78894;BME280;68282;42.698;23.350;2023-04-15T00:05:22;94706.34;;;10.65;52.14
78894;BME280;68282;42.698;23.350;2023-04-15T00:07:47;94722.03;;;10.80;50.87
78894;BME280;68282;42.698;23.350;2023-04-15T00:10:13;94720.31;;;10.74;50.68
78894;BME280;68282;42.698;23.350;2023-04-15T00:12:41;94721.00;;;10.64;51.94
78894;BME280;68282;42.698;23.350;2023-04-15T00:15:07;94717.97;;;10.60;52.51
78894;BME280;68282;42.698;23.350;2023-04-15T00:17:33;94708.50;;;10.63;52.92
78894;BME280;68282;42.698;23.350;2023-04-15T00:19:59;94723.03;;;10.74;52.17
78894;BME280;68282;42.698;23.350;2023-04-15T00:22:25;94724.09;;;10.73;52.00
78894;BME280;68282;42.698;23.350;2023-04-15T00:24:52;94707.59;;;10.79;51.85
78894;BME280;68282;42.698;23.350;2023-04-15T00:27:17;94709.06;;;10.92;51.48
78894;BME280;68282;42.698;23.350;2023-04-15T00:29:43;94710.81;;;11.04;51.31
78894;BME280;68282;42.698;23.350;2023-04-15T00:32:08;94699.22;;;10.86;52.01
78894;BME280;68282;42.698;23.350;2023-04-15T00:34:33;94698.56;;;10.74;51.55
78894;BME280;68282;42.698;23.350;2023-04-15T00:36:59;94698.66;;;10.84;51.42
78894;BME280;68282;42.698;23.350;2023-04-15T00:39:24;94700.91;;;10.92;51.04
78894;BME280;68282;42.698;23.350;2023-04-15T00:41:50;94713.81;;;11.02;50.47
78894;BME280;68282;42.698;23.350;2023-04-15T00:44:16;94717.00;;;10.94;50.65
78894;BME280;68282;42.698;23.350;2023-04-15T00:46:43;94717.34;;;11.03;49.77
78894;BME280;68282;42.698;23.350;2023-04-15T00:49:09;94714.22;;;10.89;49.91
78894;BME280;68282;42.698;23.350;2023-04-15T00:51:35;94717.47;;;10.86;50.73
78894;BME280;68282;42.698;23.350;2023-04-15T00:54:04;94710.28;;;10.74;51.52
78894;BME280;68282;42.698;23.350;2023-04-15T00:56:34;94714.25;;;10.66;51.85
78894;BME280;68282;42.698;23.350;2023-04-15T00:59:00;94712.34;;;10.67;52.03
78894;BME280;68282;42.698;23.350;2023-04-15T01:01:26;94714.41;;;10.82;51.92
78894;BME280;68282;42.698;23.350;2023-04-15T01:03:55;94710.31;;;10.79;52.00
78894;BME280;68282;42.698;23.350;2023-04-15T01:06:20;94719.50;;;10.73;52.71
78894;BME280;68282;42.698;23.350;2023-04-15T01:08:46;94716.31;;;10.81;52.02
78894;BME280;68282;42.698;23.350;2023-04-15T01:11:12;94733.16;;;10.78;52.46
78894;BME280;68282;42.698;23.350;2023-04-15T01:13:38;94728.34;;;10.63;52.93
78894;BME280;68282;42.698;23.350;2023-04-15T01:16:06;94732.72;;;10.64;53.21
78894;BME280;68282;42.698;23.350;2023-04-15T01:18:33;94731.38;;;10.67;53.67
78894;BME280;68282;42.698;23.350;2023-04-15T01:21:00;94723.19;;;10.62;54.22
78894;BME280;68282;42.698;23.350;2023-04-15T01:23:26;94715.72;;;10.74;54.38
78894;BME280;68282;42.698;23.350;2023-04-15T01:25:52;94709.06;;;10.65;54.17
78894;BME280;68282;42.698;23.350;2023-04-15T01:28:18;94701.16;;;10.63;54.52
78894;BME280;68282;42.698;23.350;2023-04-15T01:30:44;94703.84;;;10.58;54.79
78894;BME280;68282;42.698;23.350;2023-04-15T01:33:10;94698.31;;;10.53;55.11
78894;BME280;68282;42.698;23.350;2023-04-15T01:35:35;94709.66;;;10.45;54.90
78894;BME280;68282;42.698;23.350;2023-04-15T01:38:06;94707.81;;;10.50;54.74
78894;BME280;68282;42.698;23.350;2023-04-15T01:40:32;94707.06;;;10.55;54.98
78894;BME280;68282;42.698;23.350;2023-04-15T01:42:58;94714.28;;;10.72;54.05
78894;BME280;68282;42.698;23.350;2023-04-15T01:45:24;94716.25;;;10.76;54.63
78894;BME280;68282;42.698;23.350;2023-04-15T01:47:49;94715.81;;;10.62;54.60
78894;BME280;68282;42.698;23.350;2023-04-15T01:50:15;94728.16;;;10.48;54.70
78894;BME280;68282;42.698;23.350;2023-04-15T01:52:40;94724.53;;;10.42;55.52
78894;BME280;68282;42.698;23.350;2023-04-15T01:55:07;94726.00;;;10.50;55.70
78894;BME280;68282;42.698;23.350;2023-04-15T01:57:33;94725.13;;;10.66;54.62
78894;BME280;68282;42.698;23.350;2023-04-15T01:59:59;94736.31;;;10.70;55.14
78894;BME280;68282;42.698;23.350;2023-04-15T02:02:24;94727.34;;;10.47;55.12
78894;BME280;68282;42.698;23.350;2023-04-15T02:04:49;94731.88;;;10.42;55.83
78894;BME280;68282;42.698;23.350;2023-04-15T02:07:15;94736.13;;;10.15;55.95
78894;BME280;68282;42.698;23.350;2023-04-15T02:09:40;94738.22;;;10.08;56.26
78894;BME280;68282;42.698;23.350;2023-04-15T02:12:08;94735.03;;;10.33;56.00
78894;BME280;68282;42.698;23.350;2023-04-15T02:14:33;94743.63;;;10.25;55.59
78894;BME280;68282;42.698;23.350;2023-04-15T02:16:59;94738.09;;;10.20;55.02
78894;BME280;68282;42.698;23.350;2023-04-15T02:19:34;94733.94;;;9.95;55.47
78894;BME280;68282;42.698;23.350;2023-04-15T02:22:00;94719.88;;;9.98;55.44
78894;BME280;68282;42.698;23.350;2023-04-15T02:24:29;94727.41;;;10.13;55.21
78894;BME280;68282;42.698;23.350;2023-04-15T02:26:55;94726.84;;;9.94;55.20
78894;BME280;68282;42.698;23.350;2023-04-15T02:29:21;94712.50;;;10.16;54.75
78894;BME280;68282;42.698;23.350;2023-04-15T02:31:48;94714.88;;;10.12;54.58
78894;BME280;68282;42.698;23.350;2023-04-15T02:34:13;94723.59;;;9.92;54.20
78894;BME280;68282;42.698;23.350;2023-04-15T02:36:39;94727.28;;;9.86;54.88
78894;BME280;68282;42.698;23.350;2023-04-15T02:39:05;94728.63;;;9.66;55.75
78894;BME280;68282;42.698;23.350;2023-04-15T02:41:30;94732.56;;;9.75;55.14
78894;BME280;68282;42.698;23.350;2023-04-15T02:43:56;94734.28;;;9.65;55.08
78894;BME280;68282;42.698;23.350;2023-04-15T02:46:21;94731.19;;;9.56;55.38
78894;BME280;68282;42.698;23.350;2023-04-15T02:48:48;94731.75;;;9.58;55.73
78894;BME280;68282;42.698;23.350;2023-04-15T02:51:15;94737.03;;;9.48;55.64
78894;BME280;68282;42.698;23.350;2023-04-15T02:53:41;94747.78;;;9.59;54.98
78894;BME280;68282;42.698;23.350;2023-04-15T02:56:07;94752.16;;;9.43;56.25
78894;BME280;68282;42.698;23.350;2023-04-15T02:58:33;94751.31;;;9.43;56.44
78894;BME280;68282;42.698;23.350;2023-04-15T03:00:59;94764.47;;;9.34;56.43
78894;BME280;68282;42.698;23.350;2023-04-15T03:03:24;94747.03;;;9.47;55.54
78894;BME280;68282;42.698;23.350;2023-04-15T03:05:52;94748.22;;;9.51;54.11
78894;BME280;68282;42.698;23.350;2023-04-15T03:08:17;94756.38;;;9.22;54.66
78894;BME280;68282;42.698;23.350;2023-04-15T03:10:43;94757.19;;;9.06;54.62
78894;BME280;68282;42.698;23.350;2023-04-15T03:13:08;94749.84;;;9.06;53.88
78894;BME280;68282;42.698;23.350;2023-04-15T03:15:34;94761.78;;;9.05;53.58
78894;BME280;68282;42.698;23.350;2023-04-15T03:17:59;94765.75;;;9.15;53.41
78894;BME280;68282;42.698;23.350;2023-04-15T03:20:24;94759.13;;;8.93;53.28
78894;BME280;68282;42.698;23.350;2023-04-15T03:22:50;94765.53;;;8.87;53.39
78894;BME280;68282;42.698;23.350;2023-04-15T03:25:15;94768.19;;;8.70;53.52
78894;BME280;68282;42.698;23.350;2023-04-15T03:27:41;94768.47;;;8.86;52.81
78894;BME280;68282;42.698;23.350;2023-04-15T03:30:07;94767.25;;;8.64;52.75
78894;BME280;68282;42.698;23.350;2023-04-15T03:32:33;94777.38;;;8.69;53.45
78894;BME280;68282;42.698;23.350;2023-04-15T03:34:58;94777.28;;;8.52;53.59
78894;BME280;68282;42.698;23.350;2023-04-15T03:37:24;94779.75;;;8.42;53.91
78894;BME280;68282;42.698;23.350;2023-04-15T03:39:49;94787.78;;;8.48;53.57
78894;BME280;68282;42.698;23.350;2023-04-15T03:42:15;94801.56;;;8.59;53.59
78894;BME280;68282;42.698;23.350;2023-04-15T03:44:40;94804.38;;;8.64;53.26
78894;BME280;68282;42.698;23.350;2023-04-15T03:47:06;94803.78;;;8.62;53.92
78894;BME280;68282;42.698;23.350;2023-04-15T03:49:31;94803.69;;;8.57;53.46
78894;BME280;68282;42.698;23.350;2023-04-15T03:51:57;94806.25;;;8.63;53.30
78894;BME280;68282;42.698;23.350;2023-04-15T03:54:23;94806.97;;;8.59;53.56
78894;BME280;68282;42.698;23.350;2023-04-15T03:56:49;94816.31;;;8.51;53.68
78894;BME280;68282;42.698;23.350;2023-04-15T03:59:14;94812.63;;;8.69;53.55
78894;BME280;68282;42.698;23.350;2023-04-15T04:01:40;94812.81;;;8.79;53.64
78894;BME280;68282;42.698;23.350;2023-04-15T04:04:05;94810.25;;;8.73;53.38
78894;BME280;68282;42.698;23.350;2023-04-15T04:06:31;94802.34;;;8.71;54.12
78894;BME280;68282;42.698;23.350;2023-04-15T04:08:57;94801.00;;;8.86;54.13
78894;BME280;68282;42.698;23.350;2023-04-15T04:11:22;94811.56;;;8.99;53.77
78894;BME280;68282;42.698;23.350;2023-04-15T04:13:47;94813.13;;;8.95;53.68
78894;BME280;68282;42.698;23.350;2023-04-15T04:16:13;94803.63;;;8.80;54.29
78894;BME280;68282;42.698;23.350;2023-04-15T04:18:38;94809.19;;;8.74;54.12
78894;BME280;68282;42.698;23.350;2023-04-15T04:21:03;94820.38;;;8.65;55.41
78894;BME280;68282;42.698;23.350;2023-04-15T04:23:29;94821.69;;;8.63;55.18
78894;BME280;68282;42.698;23.350;2023-04-15T04:25:55;94820.50;;;8.71;55.15
78894;BME280;68282;42.698;23.350;2023-04-15T04:28:20;94818.25;;;8.79;54.78
78894;BME280;68282;42.698;23.350;2023-04-15T04:30:46;94815.41;;;8.86;55.09
78894;BME280;68282;42.698;23.350;2023-04-15T04:33:11;94818.19;;;9.03;54.33
78894;BME280;68282;42.698;23.350;2023-04-15T04:35:37;94816.63;;;9.07;54.26
78894;BME280;68282;42.698;23.350;2023-04-15T04:38:03;94820.50;;;9.11;54.01
78894;BME280;68282;42.698;23.350;2023-04-15T04:40:28;94822.50;;;9.04;54.77
78894;BME280;68282;42.698;23.350;2023-04-15T04:42:54;94821.66;;;9.16;54.32
78894;BME280;68282;42.698;23.350;2023-04-15T04:45:19;94825.78;;;9.18;54.51
78894;BME280;68282;42.698;23.350;2023-04-15T04:47:45;94836.31;;;9.15;54.77
78894;BME280;68282;42.698;23.350;2023-04-15T04:50:11;94839.41;;;9.35;54.84
78894;BME280;68282;42.698;23.350;2023-04-15T04:52:37;94845.16;;;9.39;53.86
78894;BME280;68282;42.698;23.350;2023-04-15T04:55:03;94841.28;;;9.35;53.76
78894;BME280;68282;42.698;23.350;2023-04-15T04:57:28;94837.16;;;9.32;54.99
78894;BME280;68282;42.698;23.350;2023-04-15T04:59:53;94837.22;;;9.49;54.89
78894;BME280;68282;42.698;23.350;2023-04-15T05:02:19;94845.97;;;9.39;54.68
78894;BME280;68282;42.698;23.350;2023-04-15T05:04:44;94848.28;;;9.31;54.76
78894;BME280;68282;42.698;23.350;2023-04-15T05:07:10;94850.00;;;9.37;55.30
78894;BME280;68282;42.698;23.350;2023-04-15T05:09:35;94863.00;;;9.35;55.34
78894;BME280;68282;42.698;23.350;2023-04-15T05:12:02;94865.09;;;9.44;54.62
78894;BME280;68282;42.698;23.350;2023-04-15T05:14:28;94873.13;;;9.39;55.06
78894;BME280;68282;42.698;23.350;2023-04-15T05:16:53;94876.88;;;9.50;55.57
78894;BME280;68282;42.698;23.350;2023-04-15T05:19:18;94876.56;;;9.64;54.69
78894;BME280;68282;42.698;23.350;2023-04-15T05:21:44;94881.81;;;9.70;54.37
78894;BME280;68282;42.698;23.350;2023-04-15T05:24:10;94879.47;;;9.74;54.85
78894;BME280;68282;42.698;23.350;2023-04-15T05:26:35;94880.22;;;9.86;53.75
78894;BME280;68282;42.698;23.350;2023-04-15T05:29:01;94866.72;;;9.92;53.45
78894;BME280;68282;42.698;23.350;2023-04-15T05:31:26;94880.56;;;10.07;52.70
78894;BME280;68282;42.698;23.350;2023-04-15T05:33:51;94877.03;;;10.06;52.42
78894;BME280;68282;42.698;23.350;2023-04-15T05:36:17;94870.19;;;10.04;52.51
78894;BME280;68282;42.698;23.350;2023-04-15T05:38:42;94866.91;;;10.19;51.94
78894;BME280;68282;42.698;23.350;2023-04-15T05:41:08;94856.75;;;10.31;51.60
78894;BME280;68282;42.698;23.350;2023-04-15T05:43:33;94861.81;;;10.40;51.80
78894;BME280;68282;42.698;23.350;2023-04-15T05:45:59;94865.84;;;10.54;51.30
78894;BME280;68282;42.698;23.350;2023-04-15T05:48:24;94863.91;;;10.55;51.70
78894;BME280;68282;42.698;23.350;2023-04-15T05:50:50;94863.91;;;10.55;51.82
78894;BME280;68282;42.698;23.350;2023-04-15T05:53:15;94864.66;;;10.50;50.57
78894;BME280;68282;42.698;23.350;2023-04-15T05:55:41;94867.25;;;10.40;50.58
78894;BME280;68282;42.698;23.350;2023-04-15T05:58:06;94863.88;;;10.49;50.57
78894;BME280;68282;42.698;23.350;2023-04-15T06:00:32;94869.19;;;10.61;50.69
78894;BME280;68282;42.698;23.350;2023-04-15T06:02:57;94881.06;;;10.72;50.82
78894;BME280;68282;42.698;23.350;2023-04-15T06:05:23;94878.69;;;10.81;51.17
78894;BME280;68282;42.698;23.350;2023-04-15T06:07:49;94873.66;;;10.90;50.77
78894;BME280;68282;42.698;23.350;2023-04-15T06:10:14;94886.31;;;11.01;50.23
78894;BME280;68282;42.698;23.350;2023-04-15T06:12:40;94895.47;;;11.12;50.46
78894;BME280;68282;42.698;23.350;2023-04-15T06:15:06;94887.84;;;11.14;50.67
78894;BME280;68282;42.698;23.350;2023-04-15T06:17:34;94871.50;;;11.14;50.88
78894;BME280;68282;42.698;23.350;2023-04-15T06:19:59;94881.41;;;11.20;50.36
78894;BME280;68282;42.698;23.350;2023-04-15T06:22:24;94893.50;;;11.29;50.43
78894;BME280;68282;42.698;23.350;2023-04-15T06:24:50;94895.13;;;11.31;50.58
78894;BME280;68282;42.698;23.350;2023-04-15T06:27:16;94895.19;;;11.36;50.11
78894;BME280;68282;42.698;23.350;2023-04-15T06:29:42;94902.34;;;11.42;50.15
78894;BME280;68282;42.698;23.350;2023-04-15T06:32:07;94905.44;;;11.51;50.27
78894;BME280;68282;42.698;23.350;2023-04-15T06:34:33;94902.47;;;11.52;50.02
78894;BME280;68282;42.698;23.350;2023-04-15T06:36:58;94905.69;;;11.49;50.02
78894;BME280;68282;42.698;23.350;2023-04-15T06:39:25;94903.84;;;11.55;50.02
78894;BME280;68282;42.698;23.350;2023-04-15T06:41:50;94906.94;;;11.64;49.27
78894;BME280;68282;42.698;23.350;2023-04-15T06:44:16;94913.97;;;11.59;49.64
78894;BME280;68282;42.698;23.350;2023-04-15T06:46:43;94904.72;;;11.60;49.18
78894;BME280;68282;42.698;23.350;2023-04-15T06:49:09;94910.81;;;11.68;49.07
78894;BME280;68282;42.698;23.350;2023-04-15T06:51:35;94921.16;;;11.66;49.70
78894;BME280;68282;42.698;23.350;2023-04-15T06:54:01;94918.84;;;11.80;48.46
78894;BME280;68282;42.698;23.350;2023-04-15T06:56:30;94918.84;;;11.80;48.64
78894;BME280;68282;42.698;23.350;2023-04-15T06:58:56;94922.63;;;11.79;48.64
78894;BME280;68282;42.698;23.350;2023-04-15T07:01:21;94916.69;;;11.82;48.28
78894;BME280;68282;42.698;23.350;2023-04-15T07:03:47;94909.94;;;11.89;48.36
78894;BME280;68282;42.698;23.350;2023-04-15T07:06:12;94905.09;;;11.97;48.20
78894;BME280;68282;42.698;23.350;2023-04-15T07:08:38;94909.09;;;12.11;48.27
78894;BME280;68282;42.698;23.350;2023-04-15T07:11:03;94915.44;;;12.22;47.25
78894;BME280;68282;42.698;23.350;2023-04-15T07:13:30;94912.16;;;12.20;47.43
78894;BME280;68282;42.698;23.350;2023-04-15T07:15:56;94923.41;;;12.29;48.13
78894;BME280;68282;42.698;23.350;2023-04-15T07:18:22;94911.47;;;12.35;47.61
78894;BME280;68282;42.698;23.350;2023-04-15T07:20:47;94908.84;;;12.45;47.66
78894;BME280;68282;42.698;23.350;2023-04-15T07:23:12;94905.06;;;12.51;47.21
78894;BME280;68282;42.698;23.350;2023-04-15T07:25:38;94910.06;;;12.65;46.97
78894;BME280;68282;42.698;23.350;2023-04-15T07:28:03;94911.72;;;12.66;47.09
78894;BME280;68282;42.698;23.350;2023-04-15T07:30:29;94919.69;;;12.73;47.08
78894;BME280;68282;42.698;23.350;2023-04-15T07:32:54;94910.66;;;12.72;46.96
78894;BME280;68282;42.698;23.350;2023-04-15T07:35:20;94919.75;;;12.83;47.59
78894;BME280;68282;42.698;23.350;2023-04-15T07:37:47;94906.97;;;12.94;47.31
78894;BME280;68282;42.698;23.350;2023-04-15T07:40:12;94911.13;;;13.02;47.00
78894;BME280;68282;42.698;23.350;2023-04-15T07:42:39;94911.22;;;13.22;47.10
78894;BME280;68282;42.698;23.350;2023-04-15T07:45:04;94913.50;;;13.36;46.09
78894;BME280;68282;42.698;23.350;2023-04-15T07:47:31;94897.44;;;13.44;45.91
78894;BME280;68282;42.698;23.350;2023-04-15T07:49:57;94909.78;;;13.57;45.81
78894;BME280;68282;42.698;23.350;2023-04-15T07:52:22;94911.16;;;13.55;44.70
78894;BME280;68282;42.698;23.350;2023-04-15T07:54:48;94917.69;;;13.59;44.27
78894;BME280;68282;42.698;23.350;2023-04-15T07:57:13;94924.50;;;13.51;44.53
78894;BME280;68282;42.698;23.350;2023-04-15T07:59:39;94918.25;;;13.61;44.15
78894;BME280;68282;42.698;23.350;2023-04-15T08:02:04;94933.03;;;13.65;44.62
78894;BME280;68282;42.698;23.350;2023-04-15T08:04:30;94927.84;;;13.69;44.63
78894;BME280;68282;42.698;23.350;2023-04-15T08:06:56;94925.16;;;13.79;44.72
78894;BME280;68282;42.698;23.350;2023-04-15T08:09:22;94925.97;;;13.80;43.56
78894;BME280;68282;42.698;23.350;2023-04-15T08:11:48;94919.44;;;14.01;43.09
78894;BME280;68282;42.698;23.350;2023-04-15T08:14:14;94918.91;;;14.04;43.12
78894;BME280;68282;42.698;23.350;2023-04-15T08:16:39;94913.72;;;14.08;43.39
78894;BME280;68282;42.698;23.350;2023-04-15T08:19:05;94916.72;;;14.12;42.74
78894;BME280;68282;42.698;23.350;2023-04-15T08:21:30;94917.31;;;14.34;41.90
78894;BME280;68282;42.698;23.350;2023-04-15T08:23:56;94914.59;;;14.50;41.72
78894;BME280;68282;42.698;23.350;2023-04-15T08:26:21;94912.13;;;14.53;41.96
78894;BME280;68282;42.698;23.350;2023-04-15T08:28:48;94916.78;;;14.58;42.46
78894;BME280;68282;42.698;23.350;2023-04-15T08:31:14;94912.41;;;14.67;41.86
78894;BME280;68282;42.698;23.350;2023-04-15T08:33:40;94909.44;;;14.69;43.05
78894;BME280;68282;42.698;23.350;2023-04-15T08:36:06;94913.78;;;14.80;42.71
78894;BME280;68282;42.698;23.350;2023-04-15T08:38:32;94907.47;;;14.80;42.70
78894;BME280;68282;42.698;23.350;2023-04-15T08:41:21;94900.94;;;14.76;45.83
78894;BME280;68282;42.698;23.350;2023-04-15T08:44:06;94900.38;;;14.74;44.97
78894;BME280;68282;42.698;23.350;2023-04-15T08:46:41;94905.28;;;14.82;43.58
78894;BME280;68282;42.698;23.350;2023-04-15T08:49:11;94906.34;;;15.07;41.74
78894;BME280;68282;42.698;23.350;2023-04-15T08:51:39;94900.13;;;14.70;40.84
78894;BME280;68282;42.698;23.350;2023-04-15T08:54:06;94900.38;;;14.53;41.01
78894;BME280;68282;42.698;23.350;2023-04-15T08:56:32;94893.81;;;14.75;41.34
78894;BME280;68282;42.698;23.350;2023-04-15T08:58:58;94887.22;;;14.91;42.03
78894;BME280;68282;42.698;23.350;2023-04-15T09:01:25;94882.78;;;15.11;41.80
78894;BME280;68282;42.698;23.350;2023-04-15T09:03:51;94878.31;;;15.36;39.13
78894;BME280;68282;42.698;23.350;2023-04-15T09:06:22;94881.50;;;15.58;39.14
78894;BME280;68282;42.698;23.350;2023-04-15T09:08:51;94872.81;;;15.41;37.92
78894;BME280;68282;42.698;23.350;2023-04-15T09:11:17;94869.25;;;15.45;38.64
78894;BME280;68282;42.698;23.350;2023-04-15T09:13:43;94872.78;;;15.46;38.58
78894;BME280;68282;42.698;23.350;2023-04-15T09:16:09;94867.84;;;15.48;39.05
78894;BME280;68282;42.698;23.350;2023-04-15T09:18:35;94865.66;;;15.50;38.77
78894;BME280;68282;42.698;23.350;2023-04-15T09:21:09;94862.31;;;15.58;39.36
78894;BME280;68282;42.698;23.350;2023-04-15T09:24:00;94857.63;;;15.64;39.29
78894;BME280;68282;42.698;23.350;2023-04-15T09:26:37;94863.41;;;15.57;38.33
78894;BME280;68282;42.698;23.350;2023-04-15T09:29:09;94860.34;;;15.69;39.28
78894;BME280;68282;42.698;23.350;2023-04-15T09:31:36;94861.72;;;15.72;37.46
78894;BME280;68282;42.698;23.350;2023-04-15T09:34:02;94861.94;;;15.81;36.07
78894;BME280;68282;42.698;23.350;2023-04-15T09:36:27;94865.75;;;15.90;35.76
78894;BME280;68282;42.698;23.350;2023-04-15T09:38:58;94866.22;;;16.02;35.03
78894;BME280;68282;42.698;23.350;2023-04-15T09:41:27;94865.38;;;16.02;35.08
78894;BME280;68282;42.698;23.350;2023-04-15T09:43:52;94863.81;;;15.90;35.00
78894;BME280;68282;42.698;23.350;2023-04-15T09:46:18;94865.56;;;15.71;36.31
78894;BME280;68282;42.698;23.350;2023-04-15T09:48:46;94868.50;;;15.90;35.16
78894;BME280;68282;42.698;23.350;2023-04-15T09:51:11;94870.06;;;16.01;35.47
78894;BME280;68282;42.698;23.350;2023-04-15T09:53:37;94871.91;;;16.11;33.71
78894;BME280;68282;42.698;23.350;2023-04-15T09:56:02;94862.88;;;16.11;33.31
78894;BME280;68282;42.698;23.350;2023-04-15T09:58:30;94861.38;;;15.89;34.62
78894;BME280;68282;42.698;23.350;2023-04-15T10:00:57;94870.47;;;15.74;33.77
78894;BME280;68282;42.698;23.350;2023-04-15T10:03:31;94865.44;;;15.97;33.24
78894;BME280;68282;42.698;23.350;2023-04-15T10:05:59;94854.97;;;16.04;33.51
78894;BME280;68282;42.698;23.350;2023-04-15T10:08:30;94859.03;;;16.12;33.93
78894;BME280;68282;42.698;23.350;2023-04-15T10:10:57;94851.81;;;16.21;34.04
78894;BME280;68282;42.698;23.350;2023-04-15T10:13:25;94857.56;;;16.25;34.38
78894;BME280;68282;42.698;23.350;2023-04-15T10:16:14;94844.19;;;16.47;33.42
78894;BME280;68282;42.698;23.350;2023-04-15T10:18:42;94844.16;;;16.52;33.11
78894;BME280;68282;42.698;23.350;2023-04-15T10:21:08;94837.50;;;16.59;33.85
78894;BME280;68282;42.698;23.350;2023-04-15T10:23:34;94836.06;;;16.66;32.90
78894;BME280;68282;42.698;23.350;2023-04-15T10:26:00;94837.09;;;16.70;32.19
78894;BME280;68282;42.698;23.350;2023-04-15T10:28:26;94835.06;;;16.87;32.18
78894;BME280;68282;42.698;23.350;2023-04-15T10:30:52;94828.13;;;16.94;31.81
78894;BME280;68282;42.698;23.350;2023-04-15T10:33:20;94829.97;;;16.99;33.31
78894;BME280;68282;42.698;23.350;2023-04-15T10:35:47;94819.06;;;16.64;30.77
78894;BME280;68282;42.698;23.350;2023-04-15T10:38:41;94823.00;;;16.82;31.25
78894;BME280;68282;42.698;23.350;2023-04-15T10:41:33;94822.06;;;16.92;31.31
78894;BME280;68282;42.698;23.350;2023-04-15T10:44:03;94807.81;;;16.90;31.46
78894;BME280;68282;42.698;23.350;2023-04-15T10:49:13;94811.06;;;16.92;32.38
78894;BME280;68282;42.698;23.350;2023-04-15T10:51:43;94814.41;;;17.19;30.07
78894;BME280;68282;42.698;23.350;2023-04-15T10:54:13;94805.41;;;17.13;29.74
78894;BME280;68282;42.698;23.350;2023-04-15T10:56:43;94812.94;;;17.02;30.67
78894;BME280;68282;42.698;23.350;2023-04-15T10:59:09;94817.31;;;17.03;28.87
78894;BME280;68282;42.698;23.350;2023-04-15T11:02:00;94815.28;;;16.84;29.24
78894;BME280;68282;42.698;23.350;2023-04-15T11:04:54;94814.53;;;16.79;29.93
78894;BME280;68282;42.698;23.350;2023-04-15T11:15:32;94808.84;;;16.99;31.24
78894;BME280;68282;42.698;23.350;2023-04-15T11:18:07;94804.44;;;17.23;31.01
78894;BME280;68282;42.698;23.350;2023-04-15T11:20:33;94801.34;;;17.29;31.74
78894;BME280;68282;42.698;23.350;2023-04-15T11:22:58;94795.69;;;17.40;30.97
78894;BME280;68282;42.698;23.350;2023-04-15T11:25:25;94798.16;;;17.60;31.12
78894;BME280;68282;42.698;23.350;2023-04-15T11:27:52;94795.13;;;17.81;30.44
78894;BME280;68282;42.698;23.350;2023-04-15T11:30:24;94796.84;;;17.77;30.09
78894;BME280;68282;42.698;23.350;2023-04-15T11:32:56;94790.81;;;17.94;29.79
78894;BME280;68282;42.698;23.350;2023-04-15T11:35:22;94792.91;;;18.02;31.16
78894;BME280;68282;42.698;23.350;2023-04-15T11:37:48;94797.16;;;18.14;29.46
78894;BME280;68282;42.698;23.350;2023-04-15T11:40:24;94800.94;;;18.18;27.93
78894;BME280;68282;42.698;23.350;2023-04-15T11:45:29;94791.09;;;18.31;27.27
78894;BME280;68282;42.698;23.350;2023-04-15T11:48:04;94787.84;;;18.43;27.12
78894;BME280;68282;42.698;23.350;2023-04-15T11:50:30;94790.34;;;18.58;27.49
78894;BME280;68282;42.698;23.350;2023-04-15T11:52:57;94789.38;;;18.68;27.00
78894;BME280;68282;42.698;23.350;2023-04-15T11:55:24;94784.84;;;18.72;26.75
78894;BME280;68282;42.698;23.350;2023-04-15T12:00:36;94784.25;;;18.75;27.48
78894;BME280;68282;42.698;23.350;2023-04-15T12:06:14;94780.59;;;18.80;23.61
78894;BME280;68282;42.698;23.350;2023-04-15T12:08:55;94782.91;;;18.59;21.06
78894;BME280;68282;42.698;23.350;2023-04-15T12:11:40;94774.88;;;18.62;21.96
78894;BME280;68282;42.698;23.350;2023-04-15T12:14:11;94773.25;;;18.75;22.63
78894;BME280;68282;42.698;23.350;2023-04-15T12:16:41;94777.63;;;18.76;23.98
78894;BME280;68282;42.698;23.350;2023-04-15T12:19:14;94767.91;;;18.51;24.42
78894;BME280;68282;42.698;23.350;2023-04-15T12:21:43;94769.84;;;18.64;24.58
78894;BME280;68282;42.698;23.350;2023-04-15T12:24:09;94776.72;;;18.67;24.78
78894;BME280;68282;42.698;23.350;2023-04-15T12:26:51;94764.53;;;18.54;24.39
78894;BME280;68282;42.698;23.350;2023-04-15T12:29:17;94775.47;;;18.59;24.62
78894;BME280;68282;42.698;23.350;2023-04-15T12:31:55;94774.75;;;18.81;23.99
78894;BME280;68282;42.698;23.350;2023-04-15T12:34:29;94772.41;;;18.75;23.18
78894;BME280;68282;42.698;23.350;2023-04-15T12:36:55;94777.44;;;18.73;23.21
78894;BME280;68282;42.698;23.350;2023-04-15T12:39:23;94769.16;;;18.73;23.53
78894;BME280;68282;42.698;23.350;2023-04-15T12:41:49;94778.09;;;18.64;23.83
78894;BME280;68282;42.698;23.350;2023-04-15T12:44:15;94771.41;;;18.70;23.72
78894;BME280;68282;42.698;23.350;2023-04-15T12:46:41;94768.03;;;18.74;23.93
78894;BME280;68282;42.698;23.350;2023-04-15T12:49:07;94775.78;;;18.72;23.55
78894;BME280;68282;42.698;23.350;2023-04-15T12:51:33;94776.47;;;18.63;22.87
78894;BME280;68282;42.698;23.350;2023-04-15T12:53:59;94779.47;;;18.67;22.89
78894;BME280;68282;42.698;23.350;2023-04-15T12:56:25;94789.06;;;18.36;22.97
78894;BME280;68282;42.698;23.350;2023-04-15T12:58:51;94779.97;;;18.36;22.78
78894;BME280;68282;42.698;23.350;2023-04-15T13:01:19;94778.81;;;18.56;22.64
78894;BME280;68282;42.698;23.350;2023-04-15T13:03:45;94780.25;;;18.67;22.82
78894;BME280;68282;42.698;23.350;2023-04-15T13:06:10;94779.06;;;18.74;23.54
78894;BME280;68282;42.698;23.350;2023-04-15T13:08:36;94783.22;;;18.71;23.97
78894;BME280;68282;42.698;23.350;2023-04-15T13:11:02;94769.97;;;18.73;23.28